createdAt,value
2023-02-23T00:04:52.583Z,58.63
2023-02-23T00:09:58.752Z,58.81
2023-02-23T00:15:02.435Z,58.75
2023-02-23T00:20:13.421Z,58.75
2023-02-23T00:25:18.818Z,58.46
2023-02-23T00:30:22.122Z,58.58
2023-02-23T00:35:25.331Z,58.65
2023-02-23T00:40:30.266Z,58.65
2023-02-23T00:45:34.278Z,58.65
2023-02-23T00:50:39.514Z,58.82
2023-02-23T00:55:43.343Z,58.72
2023-02-23T01:00:46.897Z,58.58
2023-02-23T01:05:50.504Z,58.46
2023-02-23T01:10:54.079Z,58.72
2023-02-23T01:15:57.442Z,58.67
2023-02-23T01:21:05.738Z,58.76
2023-02-23T01:26:19.287Z,58.90
2023-02-23T01:31:24.708Z,58.80
2023-02-23T01:36:29.476Z,58.86
2023-02-23T01:41:34.360Z,58.74
2023-02-23T01:46:40.106Z,58.94
2023-02-23T01:51:48.897Z,59.03
2023-02-23T01:56:58.862Z,59.11
2023-02-23T02:02:05.564Z,59.19
2023-02-23T02:07:10.383Z,59.12
2023-02-23T02:12:15.251Z,59.21
2023-02-23T02:17:26.241Z,59.42
2023-02-23T02:22:50.698Z,59.47
2023-02-23T02:28:04.575Z,59.53
2023-02-23T02:33:32.382Z,59.55
2023-02-23T02:38:54.102Z,59.50
2023-02-23T02:44:25.636Z,59.53
2023-02-23T02:49:43.094Z,59.29
2023-02-23T02:54:57.413Z,59.35
2023-02-23T03:00:20.718Z,59.25
2023-02-23T03:05:57.746Z,59.32
2023-02-23T03:11:25.355Z,59.07
2023-02-23T03:17:08.636Z,58.99
2023-02-23T03:22:43.163Z,58.78
2023-02-23T03:28:27.996Z,58.90
2023-02-23T03:34:18.437Z,59.02
2023-02-23T03:39:55.125Z,58.94
2023-02-23T03:45:24.503Z,58.79
2023-02-23T03:51:00.229Z,58.79
2023-02-23T03:56:23.014Z,58.94
2023-02-23T04:01:47.017Z,59.00
2023-02-23T04:07:11.519Z,58.95
2023-02-23T04:12:59.232Z,59.16
2023-02-23T04:18:07.177Z,59.14
2023-02-23T04:23:11.438Z,59.30
2023-02-23T04:28:14.938Z,59.21
2023-02-23T04:33:22.334Z,59.44
2023-02-23T04:38:25.992Z,59.27
2023-02-23T04:43:29.387Z,59.59
2023-02-23T04:48:32.994Z,59.59
2023-02-23T04:53:36.242Z,59.50
2023-02-23T04:58:39.686Z,59.50
2023-02-23T05:03:43.076Z,59.74
2023-02-23T05:08:46.570Z,59.60
2023-02-23T05:13:49.931Z,60.05
2023-02-23T05:18:54.134Z,60.07
2023-02-23T05:23:58.419Z,60.03
2023-02-23T05:29:35.307Z,60.13
2023-02-23T05:34:43.289Z,60.23
2023-02-23T05:39:47.545Z,60.23
2023-02-23T05:44:50.819Z,60.45
2023-02-23T05:49:54.530Z,60.66
2023-02-23T05:54:58.065Z,60.76
2023-02-23T06:00:01.646Z,61.43
2023-02-23T06:05:09.731Z,61.02
2023-02-23T06:10:13.551Z,61.04
2023-02-23T06:15:17.039Z,61.88
2023-02-23T06:20:20.215Z,61.10
2023-02-23T06:25:24.355Z,61.18
2023-02-23T06:30:30.344Z,61.02
2023-02-23T06:35:35.175Z,61.59
2023-02-23T06:40:40.030Z,62.93
2023-02-23T06:45:47.380Z,61.80
2023-02-23T06:50:50.946Z,61.52
2023-02-23T06:55:54.318Z,61.11
2023-02-23T07:00:59.740Z,61.15
2023-02-23T07:06:04.843Z,61.23
2023-02-23T07:17:36.030Z,61.18
2023-02-23T07:22:40.043Z,61.07
2023-02-23T07:28:15.999Z,61.44
2023-02-23T07:33:21.602Z,61.48
2023-02-23T07:38:26.889Z,61.28
2023-02-23T07:43:30.433Z,61.30
2023-02-23T07:49:07.088Z,61.37
2023-02-23T07:54:43.180Z,61.10
2023-02-23T08:00:52.208Z,60.61
2023-02-23T08:05:56.750Z,60.87
2023-02-23T08:11:05.190Z,60.91
2023-02-23T08:16:08.880Z,61.12
2023-02-23T08:21:12.288Z,61.36
2023-02-23T08:26:15.549Z,60.79
2023-02-23T08:31:21.665Z,60.30
2023-02-23T08:36:25.349Z,60.60
2023-02-23T08:41:28.748Z,60.30
2023-02-23T08:46:33.394Z,60.31
2023-02-23T08:51:37.350Z,60.37
2023-02-23T08:56:42.766Z,60.20
2023-02-23T09:01:46.202Z,59.53
2023-02-23T09:06:50.417Z,59.41
2023-02-23T09:11:53.805Z,59.17
2023-02-23T09:16:57.038Z,59.70
2023-02-23T09:22:00.148Z,59.36
2023-02-23T09:27:03.586Z,58.66
2023-02-23T09:32:07.075Z,58.75
2023-02-23T09:37:10.521Z,58.63
2023-02-23T09:42:28.637Z,58.25
2023-02-23T09:47:36.726Z,58.18
2023-02-23T09:52:45.227Z,58.05
2023-02-23T09:57:50.003Z,57.68
2023-02-23T10:03:08.513Z,57.72
2023-02-23T10:08:25.105Z,57.69
2023-02-23T10:13:31.158Z,57.26
2023-02-23T10:18:56.745Z,57.07
2023-02-23T10:24:27.397Z,56.93
2023-02-23T10:29:36.888Z,56.83
2023-02-23T10:34:41.304Z,56.65
2023-02-23T10:39:44.602Z,56.67
2023-02-23T10:44:48.343Z,56.06
2023-02-23T10:49:55.095Z,55.82
2023-02-23T10:55:00.794Z,55.46
2023-02-23T11:00:27.878Z,55.11
2023-02-23T11:05:43.523Z,54.83
2023-02-23T11:10:56.872Z,53.82
2023-02-23T11:16:20.014Z,53.73
2023-02-23T11:21:26.811Z,53.42
2023-02-23T11:26:37.776Z,53.42
2023-02-23T11:31:51.391Z,53.27
2023-02-23T11:37:07.733Z,53.26
2023-02-23T11:42:18.165Z,52.74
2023-02-23T11:47:23.503Z,52.37
2023-02-23T11:52:28.181Z,52.24
2023-02-23T11:57:34.588Z,52.45
2023-02-23T12:02:53.931Z,52.61
2023-02-23T12:08:04.800Z,51.86
2023-02-23T12:13:08.043Z,51.97
2023-02-23T12:18:38.177Z,52.60
2023-02-23T12:23:46.957Z,52.14
2023-02-23T12:29:11.529Z,51.70
2023-02-23T12:34:24.891Z,52.05
2023-02-23T12:39:37.321Z,52.16
2023-02-23T12:44:52.800Z,51.81
2023-02-23T12:50:07.548Z,51.91
2023-02-23T12:55:13.414Z,52.49
2023-02-23T13:00:39.476Z,52.61
2023-02-23T13:05:51.570Z,53.07
2023-02-23T13:11:04.063Z,53.30
2023-02-23T13:16:27.280Z,53.64
2023-02-23T13:21:45.181Z,53.49
2023-02-23T13:27:15.494Z,53.47
2023-02-23T13:32:29.536Z,53.09
2023-02-23T13:37:52.226Z,53.47
2023-02-23T13:43:18.034Z,53.04
2023-02-23T13:48:33.546Z,53.16
2023-02-23T13:53:48.075Z,53.24
2023-02-23T13:58:57.973Z,52.74
2023-02-23T14:04:05.256Z,53.16
2023-02-23T14:09:22.384Z,52.90
2023-02-23T14:14:32.055Z,53.31
2023-02-23T14:19:43.401Z,53.10
2023-02-23T14:24:46.717Z,53.51
2023-02-23T14:30:12.732Z,53.42
2023-02-23T14:35:34.984Z,53.78
2023-02-23T14:40:42.673Z,53.69
2023-02-23T14:45:47.030Z,53.71
2023-02-23T14:50:53.465Z,53.60
2023-02-23T14:55:59.440Z,54.02
2023-02-23T15:01:03.288Z,53.91
2023-02-23T15:06:07.844Z,54.40
2023-02-23T15:11:14.620Z,54.26
2023-02-23T15:16:37.657Z,54.54
2023-02-23T15:21:41.903Z,54.98
2023-02-23T15:26:46.738Z,54.91
2023-02-23T15:31:53.480Z,54.94
2023-02-23T15:37:00.290Z,55.13
2023-02-23T15:42:06.332Z,55.20
2023-02-23T15:47:33.889Z,55.40
2023-02-23T15:52:46.450Z,55.84
2023-02-23T15:58:02.027Z,55.93
2023-02-23T16:04:50.617Z,55.97
2023-02-23T16:15:43.682Z,56.62
2023-02-23T16:20:56.934Z,56.83
2023-02-23T16:27:01.037Z,57.50
2023-02-23T16:32:18.051Z,56.92
2023-02-23T16:37:26.336Z,56.61
2023-02-23T16:42:40.184Z,56.95
2023-02-23T16:48:56.861Z,57.32
2023-02-23T16:54:00.388Z,57.34
2023-02-23T16:59:05.066Z,57.70
2023-02-23T17:05:16.120Z,57.72
2023-02-23T17:10:36.852Z,57.48
2023-02-23T17:16:13.645Z,57.97
2023-02-23T17:21:24.483Z,58.06
2023-02-23T17:26:28.869Z,57.96
2023-02-23T17:32:05.513Z,58.01
2023-02-23T17:37:10.959Z,58.26
2023-02-23T17:42:47.097Z,58.38
2023-02-23T17:49:26.741Z,58.35
2023-02-23T18:00:22.623Z,58.73
2023-02-23T18:19:03.478Z,59.02
2023-02-23T19:46:01.711Z,61.49
2023-02-23T19:51:52.538Z,61.41
2023-02-23T19:57:57.585Z,61.85
2023-02-23T20:04:10.264Z,62.04
2023-02-23T20:09:40.363Z,62.32
2023-02-23T20:15:36.110Z,62.40
2023-02-23T20:21:42.389Z,62.52
2023-02-23T20:26:59.566Z,63.53
2023-02-23T20:32:07.796Z,63.44
2023-02-23T20:38:32.582Z,62.56
2023-02-23T20:44:01.443Z,62.70
2023-02-23T20:49:20.632Z,62.36
2023-02-23T20:55:09.517Z,62.40
2023-02-23T21:01:14.232Z,62.36
2023-02-23T21:06:42.228Z,62.36
2023-02-23T21:12:11.354Z,62.43
2023-02-23T21:17:18.134Z,62.47
2023-02-23T21:22:54.252Z,62.87
2023-02-23T21:28:18.750Z,63.04
2023-02-23T21:33:33.921Z,62.98
2023-02-23T21:39:18.169Z,63.17
2023-02-23T21:45:32.550Z,62.98
2023-02-23T21:51:29.399Z,63.18
2023-02-23T21:57:35.004Z,63.72
2023-02-23T22:03:55.127Z,63.75
2023-02-23T22:09:17.141Z,63.86
2023-02-23T22:15:09.863Z,63.81
2023-02-23T22:21:19.461Z,63.93
2023-02-23T22:26:59.673Z,63.83
2023-02-23T22:33:04.580Z,63.49
2023-02-23T22:38:44.607Z,63.38
2023-02-23T22:44:09.485Z,63.34
2023-02-23T22:50:22.714Z,63.12
2023-02-23T22:56:17.083Z,63.16
2023-02-23T23:02:24.404Z,63.23
2023-02-23T23:08:38.988Z,63.43
2023-02-23T23:14:22.778Z,63.59
2023-02-23T23:20:05.412Z,63.72
2023-02-23T23:25:47.813Z,63.90
2023-02-23T23:31:57.534Z,63.95
2023-02-23T23:37:42.472Z,64.02
2023-02-23T23:43:42.481Z,64.41
2023-02-23T23:49:51.840Z,64.58
2023-02-23T23:56:08.630Z,64.62
